Time;durP1;ratioP1;P1;durP2;ratioP2;P2;SDS_P1;SDS_P2;PMS_P1;PMS_P2;Temp;Humidity;BMP_temperature;BMP_pressure;BME280_temperature;BME280_humidity;BME280_pressure;Samples;Min_cycle;Max_cycle;Signal;HPM_P1;HPM_P2
2022/10/01 00:01:01;;;;;;;15.32;7.82;;;;;;;;;;4992437;28;20038;-83
2022/10/01 00:04:39;;;;;;;18.33;8.77;;;;;;;;;;5001162;28;20031;-85
2022/10/01 00:07:35;;;;;;;15.73;8.40;;;;;;;;;;4985233;28;20046;-81
2022/10/01 00:15:16;;;;;;;15.85;8.20;;;;;;;;;;4996612;28;20046;-85
2022/10/01 00:26:56;;;;;;;13.00;8.35;;;;;;;;;;5025808;28;20433;-83
2022/10/01 00:30:15;;;;;;;17.08;8.93;;;;;;;;;;5009660;28;20046;-85
2022/10/01 00:33:25;;;;;;;17.42;9.00;;;;;;;;;;4998784;28;20045;-85
2022/10/01 00:45:14;;;;;;;;;;;;;;;;;;;;;
2022/10/01 00:48:46;;;;;;;16.02;8.73;;;;;;;;;;5023020;28;20038;-85
2022/10/01 01:01:37;;;;;;;;;;;;;;;;;;;;;
2022/10/01 01:36:43;;;;;;;13.00;8.07;;;;;;;;;;4964453;28;20059;-81
2022/10/01 01:48:36;;;;;;;;;;;;;;;;;;;;;
2022/10/01 01:56:37;;;;;;;;;;;;;;;;;;;;;
2022/10/01 02:09:17;;;;;;;;;;;;;;;;;;;;;
2022/10/01 02:13:28;;;;;;;15.75;9.00;;;;;;;;;;4997334;28;20485;-86
2022/10/01 02:16:50;;;;;;;42.10;22.50;;;;;;;;;;4976360;28;20489;-86
2022/10/01 02:33:19;;;;;;;;;;;;;;;;;;;;;
2022/10/01 02:36:59;;;;;;;25.52;14.52;;;;;;;;;;4948178;29;20522;-84
2022/10/01 02:44:56;;;;;;;28.10;14.82;;;;;;;;;;4996292;28;20393;-83
2022/10/01 02:48:28;;;;;;;23.83;15.02;;;;;;;;;;4941637;28;20043;-83
2022/10/01 02:52:37;;;;;;;24.50;15.63;;;;;;;;;;4942641;29;20055;-84
2022/10/01 02:57:31;;;;;;;;;;;;;;;;;;;;;
2022/10/01 03:00:41;;;;;;;;;;;;;;;;;;;;;
2022/10/01 03:04:33;;;;;;;18.27;8.52;;;;;;;;;;4941435;29;20047;-84
2022/10/01 03:11:25;;;;;;;13.07;7.45;;;;;;;;;;4923835;29;20048;-83
2022/10/01 03:41:28;;;;;;;10.65;5.82;;;;;;;;;;4860377;29;20057;-83
2022/10/01 03:45:33;;;;;;;;;;;;;;;;;;;;;
2022/10/01 03:54:01;;;;;;;11.85;6.85;;;;;;;;;;4961519;28;20063;-85
2022/10/01 03:57:14;;;;;;;11.30;6.75;;;;;;;;;;5019849;28;20050;-83
2022/10/01 04:01:06;;;;;;;;;;;;;;;;;;;;;
2022/10/01 04:04:49;;;;;;;14.57;8.18;;;;;;;;;;5013579;28;20038;-83
2022/10/01 04:08:40;;;;;;;;;;;;;;;;;;;;;
2022/10/01 04:20:02;;;;;;;;;;;;;;;;;;;;;
2022/10/01 04:24:10;;;;;;;12.73;6.57;;;;;;;;;;5013701;28;20054;-84
2022/10/01 04:27:38;;;;;;;13.20;7.65;;;;;;;;;;5014589;28;20046;-84
2022/10/01 04:31:33;;;;;;;;;;;;;;;;;;;;;
2022/10/01 04:34:51;;;;;;;13.95;6.82;;;;;;;;;;5006638;28;20046;-85
2022/10/01 04:38:15;;;;;;;19.15;7.43;;;;;;;;;;5006173;28;20046;-85
2022/10/01 04:45:01;;;;;;;12.68;7.15;;;;;;;;;;4997568;28;20046;-83
2022/10/01 04:48:25;;;;;;;25.90;11.05;;;;;;;;;;5005624;28;20049;-85
2022/10/01 04:55:42;;;;;;;18.88;10.35;;;;;;;;;;5017710;28;20062;-84
2022/10/01 04:58:56;;;;;;;14.88;9.60;;;;;;;;;;4999160;28;20038;-86
2022/10/01 05:02:17;;;;;;;25.98;14.32;;;;;;;;;;5010401;28;20493;-84
2022/10/01 05:05:38;;;;;;;16.63;10.60;;;;;;;;;;4997766;28;20050;-85
2022/10/01 05:08:39;;;;;;;17.17;10.80;;;;;;;;;;4996918;28;20047;-85
2022/10/01 05:11:34;;;;;;;18.92;12.95;;;;;;;;;;4989454;28;20481;-85
2022/10/01 05:14:20;;;;;;;24.00;13.18;;;;;;;;;;4989817;28;20046;-84
2022/10/01 05:17:06;;;;;;;20.63;12.13;;;;;;;;;;4964767;28;20046;-84
2022/10/01 05:28:55;;;;;;;;;;;;;;;;;;;;;
2022/10/01 05:32:18;;;;;;;;;;;;;;;;;;;;;
2022/10/01 05:49:26;;;;;;;12.00;5.78;;;;;;;;;;4898448;29;20052;-84
2022/10/01 05:57:20;;;;;;;17.90;7.80;;;;;;;;;;4924203;29;20051;-84
2022/10/01 06:00:31;;;;;;;17.58;6.03;;;;;;;;;;4991580;28;20046;-85
2022/10/01 06:03:17;;;;;;;11.27;6.85;;;;;;;;;;5007422;28;20497;-84
2022/10/01 06:06:06;;;;;;;19.15;5.70;;;;;;;;;;5021940;28;20057;-84
2022/10/01 06:08:59;;;;;;;20.70;10.57;;;;;;;;;;5001952;28;20477;-87
2022/10/01 06:11:53;;;;;;;22.65;10.50;;;;;;;;;;5001617;28;20046;-84
2022/10/01 06:18:02;;;;;;;31.23;16.98;;;;;;;;;;5011828;28;20054;-85
2022/10/01 06:21:02;;;;;;;24.90;16.23;;;;;;;;;;4988276;28;20042;-84
2022/10/01 06:24:04;;;;;;;27.33;14.23;;;;;;;;;;4975678;28;20046;-84
2022/10/01 06:27:25;;;;;;;24.70;15.23;;;;;;;;;;4976089;28;20046;-84
2022/10/01 06:33:43;;;;;;;25.67;13.35;;;;;;;;;;4997373;28;20054;-82
2022/10/01 06:41:08;;;;;;;17.83;5.47;;;;;;;;;;5004628;28;20405;-84
2022/10/01 06:44:08;;;;;;;14.55;5.07;;;;;;;;;;4995015;28;20054;-86
2022/10/01 06:54:31;;;;;;;11.95;6.20;;;;;;;;;;4989413;28;20394;-84
2022/10/01 06:57:34;;;;;;;;;;;;;;;;;;;;;
2022/10/01 07:01:18;;;;;;;;;;;;;;;;;;;;;
2022/10/01 07:04:29;;;;;;;13.63;7.28;;;;;;;;;;5007254;28;20046;-85
2022/10/01 07:07:23;;;;;;;8.70;5.50;;;;;;;;;;4999991;28;20046;-85
2022/10/01 07:10:23;;;;;;;13.48;5.07;;;;;;;;;;4988037;28;20087;-86
2022/10/01 07:13:12;;;;;;;13.93;6.25;;;;;;;;;;4986508;28;20046;-89
2022/10/01 07:16:03;;;;;;;14.27;8.45;;;;;;;;;;4972041;28;20058;-85
2022/10/01 07:18:48;;;;;;;16.27;8.55;;;;;;;;;;5000851;28;20397;-85
2022/10/01 07:21:33;;;;;;;16.70;11.00;;;;;;;;;;4987174;28;20062;-84
2022/10/01 07:24:19;;;;;;;15.48;8.85;;;;;;;;;;5009432;28;20408;-85
2022/10/01 07:27:05;;;;;;;21.30;8.55;;;;;;;;;;5017994;28;20054;-86
2022/10/01 07:29:51;;;;;;;18.15;8.40;;;;;;;;;;4988801;28;20050;-86
2022/10/01 07:32:38;;;;;;;23.88;8.48;;;;;;;;;;4988164;28;20050;-83
2022/10/01 07:35:23;;;;;;;16.35;6.38;;;;;;;;;;4990923;28;20038;-83
2022/10/01 07:38:09;;;;;;;12.95;6.47;;;;;;;;;;5003002;28;20049;-82
2022/10/01 07:40:54;;;;;;;16.42;6.80;;;;;;;;;;4991901;28;20042;-84
2022/10/01 07:43:41;;;;;;;19.90;9.80;;;;;;;;;;4990828;28;20050;-84
2022/10/01 07:46:26;;;;;;;22.15;6.85;;;;;;;;;;4984446;28;20393;-82
2022/10/01 07:49:12;;;;;;;12.57;6.13;;;;;;;;;;4998057;28;20046;-83
2022/10/01 07:51:57;;;;;;;14.60;4.75;;;;;;;;;;5011341;28;20152;-83
2022/10/01 07:54:43;;;;;;;15.50;5.63;;;;;;;;;;5002940;28;20501;-84
2022/10/01 07:57:40;;;;;;;7.95;3.92;;;;;;;;;;4991871;28;20409;-84
2022/10/01 08:00:56;;;;;;;9.68;4.45;;;;;;;;;;5005243;28;20042;-85
2022/10/01 08:03:53;;;;;;;9.43;3.90;;;;;;;;;;4994941;28;20053;-80
2022/10/01 08:07:24;;;;;;;9.85;3.92;;;;;;;;;;5033383;28;20054;-84
2022/10/01 08:10:12;;;;;;;6.82;3.67;;;;;;;;;;5002896;28;20046;-84
2022/10/01 08:13:48;;;;;;;7.43;3.70;;;;;;;;;;5008392;28;20042;-85
2022/10/01 08:17:27;;;;;;;11.77;6.70;;;;;;;;;;5006466;28;20050;-84
2022/10/01 08:20:16;;;;;;;12.85;4.80;;;;;;;;;;5004923;28;20037;-84
2022/10/01 08:23:39;;;;;;;8.13;4.38;;;;;;;;;;5018748;28;20046;-86
2022/10/01 08:26:44;;;;;;;12.40;5.97;;;;;;;;;;5014377;28;20050;-84
2022/10/01 08:29:36;;;;;;;11.57;5.93;;;;;;;;;;5001322;28;20053;-85
2022/10/01 08:32:53;;;;;;;14.70;5.72;;;;;;;;;;5001709;28;20045;-86
2022/10/01 08:40:12;;;;;;;9.77;4.90;;;;;;;;;;4990439;28;20477;-89
2022/10/01 08:44:00;;;;;;;10.25;5.15;;;;;;;;;;5006131;28;20046;-85
2022/10/01 08:59:51;;;;;;;8.48;4.63;;;;;;;;;;4998456;28;20054;-86
2022/10/01 09:03:35;;;;;;;;;;;;;;;;;;;;;
2022/10/01 09:07:34;;;;;;;11.43;5.07;;;;;;;;;;5016857;28;20053;-86
2022/10/01 09:11:22;;;;;;;13.98;5.78;;;;;;;;;;5016909;28;20050;-84
2022/10/01 09:15:09;;;;;;;17.27;6.15;;;;;;;;;;4981696;28;20478;-84
2022/10/01 09:18:46;;;;;;;16.50;8.68;;;;;;;;;;4962074;28;20090;-85
2022/10/01 09:26:17;;;;;;;21.42;10.90;;;;;;;;;;4979396;28;20054;-85
2022/10/01 09:34:08;;;;;;;13.57;5.45;;;;;;;;;;5001838;28;20042;-85
2022/10/01 09:50:49;;;;;;;16.45;7.28;;;;;;;;;;5023368;28;20041;-84
2022/10/01 10:51:34;;;;;;;;;;;;;;;;;;;;;
2022/10/01 11:16:35;;;;;;;6.88;2.47;;;;;;;;;;4962578;28;20055;-87
2022/10/01 12:08:57;;;;;;;18.20;10.05;;;;;;;;;;5024144;28;20041;-85
2022/10/01 12:21:51;;;;;;;;;;;;;;;;;;;;;
2022/10/01 12:24:44;;;;;;;56.13;26.75;;;;;;;;;;4957589;29;20498;-86
2022/10/01 12:27:58;;;;;;;41.63;20.88;;;;;;;;;;4992513;28;20046;-85
2022/10/01 12:31:46;;;;;;;;;;;;;;;;;;;;;
2022/10/01 12:40:38;;;;;;;26.88;15.82;;;;;;;;;;4963393;28;20051;-88
2022/10/01 12:43:54;;;;;;;80.90;36.38;;;;;;;;;;4971168;28;20394;-87
2022/10/01 12:47:02;;;;;;;37.00;22.20;;;;;;;;;;5024429;28;20046;-84
2022/10/01 12:50:34;;;;;;;27.95;11.85;;;;;;;;;;5024000;28;20050;-85
2022/10/01 12:53:43;;;;;;;17.45;7.68;;;;;;;;;;4963323;28;20417;-84
2022/10/01 12:56:48;;;;;;;8.38;3.88;;;;;;;;;;5016256;28;20262;-84
2022/10/01 12:59:41;;;;;;;7.07;4.32;;;;;;;;;;5016744;28;20050;-84
2022/10/01 13:02:27;;;;;;;10.55;5.22;;;;;;;;;;5016604;28;20042;-85
2022/10/01 13:05:21;;;;;;;9.77;5.13;;;;;;;;;;5023223;28;20042;-84
2022/10/01 13:08:24;;;;;;;9.88;4.53;;;;;;;;;;5015926;28;20038;-85
2022/10/01 13:11:27;;;;;;;15.65;7.93;;;;;;;;;;5015916;28;20054;-85
2022/10/01 13:14:16;;;;;;;16.50;7.90;;;;;;;;;;5009029;28;20038;-85
2022/10/01 13:17:08;;;;;;;13.25;6.47;;;;;;;;;;5016443;28;20054;-84
2022/10/01 13:20:11;;;;;;;33.88;14.43;;;;;;;;;;5016476;28;20050;-84
2022/10/01 13:22:59;;;;;;;29.27;15.98;;;;;;;;;;5008198;28;20397;-85
2022/10/01 13:26:16;;;;;;;26.63;14.63;;;;;;;;;;5014769;28;20033;-83
2022/10/01 13:29:10;;;;;;;14.75;7.15;;;;;;;;;;4992556;28;20054;-83
2022/10/01 13:31:57;;;;;;;13.75;6.32;;;;;;;;;;5010686;28;20054;-84
2022/10/01 13:34:45;;;;;;;10.50;5.07;;;;;;;;;;5004201;28;20481;-83
2022/10/01 13:37:33;;;;;;;13.32;6.85;;;;;;;;;;5007232;28;20042;-83
2022/10/01 13:40:33;;;;;;;9.27;5.35;;;;;;;;;;4999611;28;20401;-83
2022/10/01 13:43:21;;;;;;;8.18;5.13;;;;;;;;;;5012280;28;20047;-82
2022/10/01 13:46:11;;;;;;;19.00;10.98;;;;;;;;;;4996003;28;20050;-83
2022/10/01 13:49:28;;;;;;;11.63;4.70;;;;;;;;;;4989003;28;20042;-84
2022/10/01 13:52:18;;;;;;;81.13;22.42;;;;;;;;;;4980253;28;20046;-82
2022/10/01 13:55:04;;;;;;;15.75;6.90;;;;;;;;;;5012755;28;20058;-81
2022/10/01 13:58:01;;;;;;;16.88;5.38;;;;;;;;;;5009154;28;20038;-83
2022/10/01 14:00:47;;;;;;;9.23;4.65;;;;;;;;;;5014958;28;20397;-83
2022/10/01 14:03:57;;;;;;;11.98;4.75;;;;;;;;;;5013025;28;20034;-83
2022/10/01 14:07:00;;;;;;;11.82;4.72;;;;;;;;;;5014035;28;20500;-82
2022/10/01 14:09:56;;;;;;;8.57;4.20;;;;;;;;;;4996466;28;20046;-84
2022/10/01 14:15:58;;;;;;;11.73;4.50;;;;;;;;;;5001625;28;20497;-83
2022/10/01 14:18:48;;;;;;;15.05;5.03;;;;;;;;;;4995362;28;20047;-83
2022/10/01 14:21:34;;;;;;;9.90;5.07;;;;;;;;;;4994750;28;20051;-83
2022/10/01 14:24:19;;;;;;;12.02;5.32;;;;;;;;;;4995031;28;20046;-83
2022/10/01 14:27:45;;;;;;;10.95;4.63;;;;;;;;;;4995149;28;20386;-83
2022/10/01 14:30:47;;;;;;;8.80;5.45;;;;;;;;;;4972730;28;20473;-84
2022/10/01 14:34:10;;;;;;;9.20;4.25;;;;;;;;;;4995572;28;20401;-85
2022/10/01 14:36:56;;;;;;;9.93;4.38;;;;;;;;;;4994006;28;20042;-84
2022/10/01 14:39:42;;;;;;;9.15;3.85;;;;;;;;;;4994557;28;20035;-84
2022/10/01 14:42:27;;;;;;;10.27;5.00;;;;;;;;;;5000002;28;20050;-83
2022/10/01 14:45:17;;;;;;;8.63;4.68;;;;;;;;;;4994241;28;20034;-84
2022/10/01 14:48:05;;;;;;;8.32;4.00;;;;;;;;;;4986611;28;20050;-84
2022/10/01 14:50:56;;;;;;;6.78;4.35;;;;;;;;;;4996310;28;20050;-83
2022/10/01 14:53:43;;;;;;;6.68;4.00;;;;;;;;;;5000762;28;20055;-82
2022/10/01 14:56:28;;;;;;;8.52;4.65;;;;;;;;;;5004496;28;20031;-83
2022/10/01 14:59:34;;;;;;;10.85;4.93;;;;;;;;;;5015168;28;20054;-83
2022/10/01 15:02:23;;;;;;;12.02;5.38;;;;;;;;;;4986786;28;20042;-83
2022/10/01 15:05:22;;;;;;;11.00;5.53;;;;;;;;;;5007525;28;20050;-83
2022/10/01 15:08:12;;;;;;;11.80;5.28;;;;;;;;;;5006060;28;20046;-83
2022/10/01 15:11:02;;;;;;;11.07;4.97;;;;;;;;;;5001234;28;20058;-83
2022/10/01 15:14:01;;;;;;;11.80;5.28;;;;;;;;;;4987164;28;20034;-84
2022/10/01 15:16:46;;;;;;;10.10;4.68;;;;;;;;;;4998086;28;20050;-82
2022/10/01 15:19:37;;;;;;;14.88;6.13;;;;;;;;;;5000893;28;20394;-82
2022/10/01 15:22:28;;;;;;;9.80;4.88;;;;;;;;;;4999982;28;20038;-82
2022/10/01 15:25:19;;;;;;;13.95;6.20;;;;;;;;;;4995320;28;20050;-83
2022/10/01 15:28:23;;;;;;;36.33;14.93;;;;;;;;;;4980011;28;20050;-82
2022/10/01 15:31:09;;;;;;;64.47;25.17;;;;;;;;;;4996971;28;20050;-83
2022/10/01 15:33:54;;;;;;;61.38;22.02;;;;;;;;;;4994975;28;20047;-82
2022/10/01 15:36:41;;;;;;;10.75;5.22;;;;;;;;;;4994459;28;20058;-82
2022/10/01 15:39:36;;;;;;;37.38;13.32;;;;;;;;;;5001497;28;20046;-84
2022/10/01 15:42:33;;;;;;;24.13;12.68;;;;;;;;;;4994952;28;20038;-83
2022/10/01 15:45:26;;;;;;;110.72;55.55;;;;;;;;;;4994533;28;20038;-83
2022/10/01 15:48:30;;;;;;;36.83;18.03;;;;;;;;;;5001408;28;20050;-83
2022/10/01 15:51:24;;;;;;;66.55;33.08;;;;;;;;;;4994493;28;20054;-83
2022/10/01 15:54:14;;;;;;;28.35;14.68;;;;;;;;;;4993215;28;20467;-83
2022/10/01 15:57:14;;;;;;;46.95;21.48;;;;;;;;;;4993982;28;20054;-84
2022/10/01 16:00:03;;;;;;;13.57;4.80;;;;;;;;;;4986075;28;20050;-83
2022/10/01 16:03:29;;;;;;;;;;;;;;;;;;4986783;28;20469;-84
2022/10/01 16:06:26;;;;;;;14.55;8.52;;;;;;;;;;5001323;28;19917;-82
2022/10/01 16:09:18;;;;;;;25.80;14.40;;;;;;;;;;4979657;28;20397;-82
2022/10/01 16:12:46;;;;;;;19.75;12.82;;;;;;;;;;5003541;28;20049;-83
2022/10/01 16:16:37;;;;;;;15.43;9.98;;;;;;;;;;4999977;28;20050;-83
2022/10/01 16:19:55;;;;;;;39.40;20.35;;;;;;;;;;5002636;28;20042;-84
2022/10/01 16:22:49;;;;;;;32.88;14.57;;;;;;;;;;5011828;28;20042;-83
2022/10/01 16:25:43;;;;;;;11.30;6.22;;;;;;;;;;5018524;28;20045;-83
2022/10/01 16:28:32;;;;;;;20.57;10.23;;;;;;;;;;5005744;28;20045;-86
2022/10/01 16:31:20;;;;;;;23.88;11.77;;;;;;;;;;5006738;28;20299;-83
2022/10/01 16:34:15;;;;;;;22.10;11.80;;;;;;;;;;5018541;28;20038;-84
2022/10/01 16:41:23;;;;;;;23.33;14.48;;;;;;;;;;5025402;28;19920;-83
2022/10/01 16:44:21;;;;;;;42.47;19.17;;;;;;;;;;4996663;28;20042;-84
2022/10/01 16:51:54;;;;;;;;;;;;;;;;;;5002275;28;20386;-81
2022/10/01 16:58:48;;;;;;;19.92;11.63;;;;;;;;;;4971426;28;20039;-84
2022/10/01 17:01:44;;;;;;;23.70;11.35;;;;;;;;;;5008936;28;20045;-85
2022/10/01 17:04:38;;;;;;;12.05;6.60;;;;;;;;;;5023019;28;20054;-87
2022/10/01 17:07:24;;;;;;;21.70;11.85;;;;;;;;;;5009269;28;20054;-84
2022/10/01 17:10:12;;;;;;;8.00;5.28;;;;;;;;;;5007834;28;20034;-83
2022/10/01 17:12:58;;;;;;;16.40;7.47;;;;;;;;;;5008880;28;20045;-82
2022/10/01 17:15:46;;;;;;;17.05;7.97;;;;;;;;;;5025078;28;20045;-82
2022/10/01 17:18:31;;;;;;;30.75;13.18;;;;;;;;;;5010000;28;20045;-83
2022/10/01 17:21:16;;;;;;;24.52;14.38;;;;;;;;;;4999595;28;20053;-82
2022/10/01 17:24:02;;;;;;;27.23;11.90;;;;;;;;;;5029314;28;20050;-84
2022/10/01 17:26:48;;;;;;;22.20;13.23;;;;;;;;;;5007085;28;20493;-82
2022/10/01 17:29:33;;;;;;;23.33;11.38;;;;;;;;;;5017509;28;20050;-81
2022/10/01 17:32:19;;;;;;;23.10;11.73;;;;;;;;;;4987800;28;20058;-80
2022/10/01 17:35:06;;;;;;;18.30;7.40;;;;;;;;;;5006715;28;20038;-82
2022/10/01 17:37:51;;;;;;;11.57;4.85;;;;;;;;;;4989945;28;20046;-79
2022/10/01 17:40:43;;;;;;;11.88;5.18;;;;;;;;;;5016703;28;20030;-79
2022/10/01 17:43:29;;;;;;;9.88;4.25;;;;;;;;;;5011414;28;20046;-78
2022/10/01 17:46:14;;;;;;;7.88;3.10;;;;;;;;;;4994154;28;20051;-80
2022/10/01 17:49:00;;;;;;;7.53;2.58;;;;;;;;;;5009488;28;20050;-80
2022/10/01 17:51:46;;;;;;;9.35;3.10;;;;;;;;;;5013081;28;20050;-80
2022/10/01 17:54:37;;;;;;;9.75;3.05;;;;;;;;;;5012573;28;20051;-79
2022/10/01 18:05:50;;;;;;;5.05;2.28;;;;;;;;;;5027091;28;20045;-83
2022/10/01 18:08:56;;;;;;;;;;;;;;;;;;;;;
2022/10/01 18:12:33;;;;;;;;;;;;;;;;;;;;;
2022/10/01 18:41:40;;;;;;;6.30;3.60;;;;;;;;;;4959561;29;20051;-87
2022/10/01 18:49:18;;;;;;;9.02;2.47;;;;;;;;;;4961702;28;20538;-85
2022/10/01 19:01:57;;;;;;;;;;;;;;;;;;;;;
2022/10/01 19:09:41;;;;;;;8.85;1.98;;;;;;;;;;4981173;28;20067;-84
2022/10/01 19:30:09;;;;;;;7.25;3.03;;;;;;;;;;4947813;29;20040;-87
2022/10/01 19:33:37;;;;;;;;;;;;;;;;;;;;;
2022/10/01 19:45:47;;;;;;;;;;;;;;;;;;4849617;29;20037;-87
2022/10/01 19:57:48;;;;;;;4.28;2.00;;;;;;;;;;5021521;28;20042;-85
2022/10/01 20:06:07;;;;;;;7.18;1.83;;;;;;;;;;5001710;28;20093;-86
2022/10/01 20:09:19;;;;;;;5.57;1.80;;;;;;;;;;4993042;28;20038;-83
2022/10/01 20:12:47;;;;;;;13.45;4.95;;;;;;;;;;4992824;28;20050;-83
2022/10/01 20:15:54;;;;;;;8.18;3.75;;;;;;;;;;5000354;28;20054;-83
2022/10/01 20:19:10;;;;;;;6.28;1.92;;;;;;;;;;4974077;28;20042;-83
2022/10/01 20:57:14;;;;;;;5.97;2.90;;;;;;;;;;5128673;23;20054;-83
2022/10/01 21:00:22;;;;;;;9.05;3.40;;;;;;;;;;4990481;28;20046;-81
2022/10/01 21:03:18;;;;;;;7.82;3.75;;;;;;;;;;5023489;28;20041;-82
2022/10/01 21:06:18;;;;;;;7.45;3.42;;;;;;;;;;5017625;28;20046;-84
2022/10/01 21:09:37;;;;;;;6.78;3.40;;;;;;;;;;5016035;28;20038;-82
2022/10/01 21:12:28;;;;;;;5.03;3.78;;;;;;;;;;5017066;28;20037;-83
2022/10/01 21:15:14;;;;;;;7.35;4.32;;;;;;;;;;5023509;28;20046;-83
2022/10/01 21:18:14;;;;;;;9.45;4.00;;;;;;;;;;5016867;28;20487;-83
2022/10/01 21:21:12;;;;;;;9.73;4.03;;;;;;;;;;5016673;28;20046;-82
2022/10/01 21:24:33;;;;;;;8.82;3.58;;;;;;;;;;5016279;28;20046;-82
2022/10/01 21:27:36;;;;;;;7.55;3.80;;;;;;;;;;4991575;28;20491;-81
2022/10/01 21:30:21;;;;;;;8.13;4.70;;;;;;;;;;5008515;28;20042;-81
2022/10/01 21:33:18;;;;;;;6.57;4.22;;;;;;;;;;5016154;28;20049;-82
2022/10/01 21:36:03;;;;;;;9.65;4.57;;;;;;;;;;5023173;28;20495;-81
2022/10/01 21:39:19;;;;;;;8.38;5.20;;;;;;;;;;5017022;28;20391;-82
2022/10/01 21:42:25;;;;;;;7.35;5.00;;;;;;;;;;5016285;28;20399;-81
2022/10/01 21:45:35;;;;;;;6.40;4.43;;;;;;;;;;5014704;28;20399;-81
2022/10/01 21:48:48;;;;;;;8.35;5.13;;;;;;;;;;5015250;28;20499;-82
2022/10/01 21:51:49;;;;;;;9.02;4.85;;;;;;;;;;5015827;28;20050;-82
2022/10/01 21:54:51;;;;;;;9.15;5.00;;;;;;;;;;5015921;28;20050;-83
2022/10/01 21:57:43;;;;;;;8.98;5.10;;;;;;;;;;5014435;28;20049;-82
2022/10/01 22:00:31;;;;;;;10.27;5.15;;;;;;;;;;5014132;28;20050;-82
2022/10/01 22:03:35;;;;;;;13.68;6.40;;;;;;;;;;5013714;28;20046;-81
2022/10/01 22:06:34;;;;;;;10.60;6.93;;;;;;;;;;5014641;28;20041;-81
2022/10/01 22:09:56;;;;;;;12.90;7.95;;;;;;;;;;5013980;28;20045;-82
2022/10/01 22:12:45;;;;;;;13.05;7.13;;;;;;;;;;5015336;28;20395;-82
2022/10/01 22:15:38;;;;;;;14.15;7.43;;;;;;;;;;5016059;28;20042;-81
2022/10/01 22:18:34;;;;;;;13.25;7.85;;;;;;;;;;5015634;28;20046;-81
2022/10/01 22:21:55;;;;;;;16.10;8.75;;;;;;;;;;5015252;28;20496;-82
2022/10/01 22:24:47;;;;;;;11.75;7.32;;;;;;;;;;5010159;28;20049;-83
2022/10/01 22:27:43;;;;;;;10.65;5.50;;;;;;;;;;5016306;28;20500;-82
2022/10/01 22:30:34;;;;;;;9.80;6.10;;;;;;;;;;5016072;28;20499;-81
2022/10/01 22:33:37;;;;;;;9.27;5.60;;;;;;;;;;5021941;28;20045;-81
2022/10/01 22:36:29;;;;;;;11.02;5.70;;;;;;;;;;5024154;28;20041;-79
2022/10/01 22:39:23;;;;;;;15.23;8.27;;;;;;;;;;5024382;28;20045;-81
2022/10/01 22:42:23;;;;;;;18.70;12.10;;;;;;;;;;5023750;28;20057;-81
2022/10/01 22:45:17;;;;;;;71.60;35.03;;;;;;;;;;5014921;28;20045;-81
2022/10/01 22:48:12;;;;;;;93.38;44.47;;;;;;;;;;5015101;28;20094;-80
2022/10/01 22:51:28;;;;;;;91.00;46.13;;;;;;;;;;5015757;28;20046;-80
2022/10/01 22:54:47;;;;;;;75.65;39.42;;;;;;;;;;5021724;28;20480;-80
2022/10/01 22:58:05;;;;;;;68.25;33.20;;;;;;;;;;5002538;28;20046;-80
2022/10/01 23:01:12;;;;;;;47.78;24.23;;;;;;;;;;5015609;28;20038;-81
2022/10/01 23:04:06;;;;;;;37.80;21.23;;;;;;;;;;5021638;28;20407;-81
2022/10/01 23:07:10;;;;;;;24.58;13.70;;;;;;;;;;5014920;28;20053;-82
2022/10/01 23:10:05;;;;;;;13.05;7.53;;;;;;;;;;5015262;28;20038;-81
2022/10/01 23:13:15;;;;;;;12.60;7.47;;;;;;;;;;5015567;28;20050;-81
2022/10/01 23:16:38;;;;;;;18.27;6.93;;;;;;;;;;5018335;28;20042;-82
2022/10/01 23:19:52;;;;;;;8.13;5.60;;;;;;;;;;5000176;28;20403;-81
2022/10/01 23:22:56;;;;;;;9.05;4.93;;;;;;;;;;5014193;28;20058;-82
2022/10/01 23:26:24;;;;;;;12.07;5.22;;;;;;;;;;5014840;28;20042;-81
2022/10/01 23:29:17;;;;;;;9.18;5.32;;;;;;;;;;5020786;28;20049;-82
2022/10/01 23:32:12;;;;;;;10.18;5.15;;;;;;;;;;5014939;28;20050;-82
2022/10/01 23:35:07;;;;;;;7.90;5.18;;;;;;;;;;5014531;28;20050;-81
2022/10/01 23:38:08;;;;;;;8.40;5.00;;;;;;;;;;5014304;28;20395;-81
2022/10/01 23:40:56;;;;;;;7.32;5.22;;;;;;;;;;5021231;28;20049;-81
2022/10/01 23:43:47;;;;;;;9.65;5.07;;;;;;;;;;5013573;28;20042;-81
2022/10/01 23:46:34;;;;;;;8.40;5.70;;;;;;;;;;5014694;28;20046;-81
2022/10/01 23:49:25;;;;;;;10.38;5.57;;;;;;;;;;5021085;28;20395;-82
2022/10/01 23:52:33;;;;;;;8.50;5.93;;;;;;;;;;5021601;28;20045;-81
2022/10/01 23:58:47;;;;;;;8.35;6.43;;;;;;;;;;5021023;28;20042;-80
